createdAt,value
2017-11-30T00:00:26.854Z,100283.94
2017-11-30T00:02:28.930Z,100293.38
2017-11-30T00:04:30.817Z,100292.18
2017-11-30T00:06:32.808Z,100296.59
2017-11-30T00:08:34.695Z,100293.23
2017-11-30T00:10:36.887Z,100286.03
2017-11-30T00:12:38.870Z,100286.84
2017-11-30T00:14:40.771Z,100289.89
2017-11-30T00:16:42.846Z,100282.65
2017-11-30T00:18:45.027Z,100279.83
2017-11-30T00:20:47.695Z,100275.19
2017-11-30T00:22:49.851Z,100278.29
2017-11-30T00:24:51.795Z,100272.81
2017-11-30T00:26:53.880Z,100275.80
2017-11-30T00:28:55.842Z,100278.38
2017-11-30T00:30:57.759Z,100274.27
2017-11-30T00:32:59.656Z,100275.72
2017-11-30T00:35:01.105Z,100277.45
2017-11-30T00:37:03.201Z,100269.31
2017-11-30T00:39:05.208Z,100270.63
2017-11-30T00:41:07.093Z,100271.55
2017-11-30T00:43:15.196Z,100280.66
2017-11-30T00:45:17.071Z,100284.81
2017-11-30T00:47:19.016Z,100269.56
2017-11-30T00:49:21.012Z,100285.92
2017-11-30T00:51:22.870Z,100277.07
2017-11-30T00:53:24.490Z,100276.27
2017-11-30T00:55:26.087Z,100276.81
2017-11-30T00:57:28.049Z,100280.72
2017-11-30T00:59:30.222Z,100277.31
2017-11-30T01:01:32.248Z,100281.67
2017-11-30T01:03:34.093Z,100273.12
2017-11-30T01:05:36.046Z,100272.34
2017-11-30T01:07:38.040Z,100270.58
2017-11-30T01:09:40.084Z,100265.92
2017-11-30T01:11:42.069Z,100269.83
2017-11-30T01:13:44.077Z,100273.90
2017-11-30T01:15:46.051Z,100264.48
2017-11-30T01:17:48.034Z,100252.68
2017-11-30T01:19:50.209Z,100256.14
2017-11-30T01:21:52.086Z,100259.48
2017-11-30T01:23:54.047Z,100250.14
2017-11-30T01:25:56.036Z,100247.25
2017-11-30T01:27:57.892Z,100255.45
2017-11-30T01:29:59.385Z,100247.73
2017-11-30T01:32:01.150Z,100244.83
2017-11-30T01:34:05.268Z,100251.69
2017-11-30T01:36:07.194Z,100246.98
2017-11-30T01:38:09.105Z,100253.08
2017-11-30T01:40:11.213Z,100242.95
2017-11-30T01:42:13.071Z,100242.66
2017-11-30T01:44:15.024Z,100243.89
2017-11-30T01:46:17.026Z,100246.12
2017-11-30T01:50:17.707Z,100258.95
2017-11-30T01:52:19.471Z,100260.29
2017-11-30T01:54:21.286Z,100263.86
2017-11-30T02:04:28.286Z,100260.27
2017-11-30T02:06:30.245Z,100262.52
2017-11-30T02:09:18.569Z,100258.25
2017-11-30T02:11:20.534Z,100251.89
2017-11-30T02:13:22.892Z,100258.39
2017-11-30T02:15:24.727Z,100249.43
2017-11-30T02:17:26.716Z,100254.64
2017-11-30T02:19:28.586Z,100252.86
2017-11-30T02:21:30.747Z,100258.49
2017-11-30T02:23:32.909Z,100256.79
2017-11-30T02:27:55.720Z,100248.23
2017-11-30T02:29:57.940Z,100247.39
2017-11-30T02:31:59.662Z,100248.86
2017-11-30T02:34:01.266Z,100244.30
2017-11-30T02:36:03.227Z,100238.80
2017-11-30T02:38:08.204Z,100239.61
2017-11-30T02:40:10.238Z,100233.20
2017-11-30T02:42:12.093Z,100228.13
2017-11-30T02:44:14.009Z,100228.48
2017-11-30T02:46:15.668Z,100230.27
2017-11-30T02:48:17.216Z,100227.80
2017-11-30T02:50:19.220Z,100221.89
2017-11-30T02:52:21.199Z,100225.77
2017-11-30T02:54:23.237Z,100235.56
2017-11-30T02:56:25.078Z,100225.73
2017-11-30T02:58:27.064Z,100217.70
2017-11-30T03:00:29.114Z,100214.35
2017-11-30T03:02:31.079Z,100212.57
2017-11-30T03:04:33.047Z,100215.22
2017-11-30T03:06:35.782Z,100209.25
2017-11-30T03:08:37.291Z,100199.91
2017-11-30T03:10:39.228Z,100206.31
2017-11-30T03:12:41.105Z,100203.41
2017-11-30T03:14:43.032Z,100206.42
2017-11-30T03:16:45.008Z,100194.03
2017-11-30T03:20:27.249Z,100193.23
2017-11-30T03:22:29.195Z,100197.97
2017-11-30T03:24:31.451Z,100197.20
2017-11-30T03:26:33.722Z,100197.13
2017-11-30T03:28:35.875Z,100200.17
2017-11-30T03:39:00.206Z,100198.41
2017-11-30T03:41:02.400Z,100193.70
2017-11-30T03:43:04.869Z,100198.48
2017-11-30T03:45:06.727Z,100195.56
2017-11-30T03:47:08.785Z,100203.28
2017-11-30T03:49:10.730Z,100197.70
2017-11-30T03:51:12.511Z,100187.86
2017-11-30T03:53:14.461Z,100193.02
2017-11-30T03:55:16.437Z,100195.16
2017-11-30T03:57:18.267Z,100192.23
2017-11-30T03:59:20.565Z,100187.10
2017-11-30T04:01:22.519Z,100182.50
2017-11-30T04:03:24.879Z,100184.17
2017-11-30T04:05:26.912Z,100181.13
2017-11-30T04:07:29.128Z,100178.65
2017-11-30T04:09:31.581Z,100177.42
2017-11-30T04:11:33.453Z,100178.23
2017-11-30T04:13:35.691Z,100179.09
2017-11-30T04:23:25.554Z,100166.83
2017-11-30T04:25:27.747Z,100167.29
2017-11-30T04:27:29.875Z,100156.67
2017-11-30T04:29:32.038Z,100158.47
2017-11-30T04:31:34.250Z,100161.90
2017-11-30T04:33:36.593Z,100156.77
2017-11-30T04:35:38.732Z,100154.65
2017-11-30T04:37:40.897Z,100153.84
2017-11-30T04:39:42.873Z,100162.77
2017-11-30T04:41:44.867Z,100156.84
2017-11-30T04:43:46.784Z,100154.27
2017-11-30T04:45:48.878Z,100157.30
2017-11-30T04:47:51.450Z,100154.37
2017-11-30T04:49:53.783Z,100163.28
2017-11-30T04:51:55.871Z,100154.45
2017-11-30T04:53:58.558Z,100154.81
2017-11-30T04:56:00.922Z,100146.70
2017-11-30T04:58:03.250Z,100146.77
2017-11-30T05:00:05.303Z,100140.42
2017-11-30T05:02:10.851Z,100143.38
2017-11-30T05:04:13.281Z,100149.44
2017-11-30T05:06:15.840Z,100145.66
2017-11-30T05:08:18.000Z,100144.45
2017-11-30T05:10:20.598Z,100146.54
2017-11-30T05:12:22.950Z,100144.03
2017-11-30T05:14:25.433Z,100145.73
2017-11-30T05:16:27.594Z,100144.03
2017-11-30T05:18:29.736Z,100145.75
2017-11-30T05:33:25.972Z,100147.90
2017-11-30T05:35:28.349Z,100145.84
2017-11-30T05:37:30.804Z,100148.03
2017-11-30T05:39:32.973Z,100145.41
2017-11-30T05:41:34.932Z,100141.63
2017-11-30T05:43:37.418Z,100139.06
2017-11-30T05:45:39.912Z,100144.58
2017-11-30T05:47:41.940Z,100134.38
2017-11-30T05:49:44.116Z,100141.16
2017-11-30T05:51:46.594Z,100136.02
2017-11-30T05:53:48.555Z,100144.13
2017-11-30T05:55:50.816Z,100140.29
2017-11-30T05:57:52.793Z,100144.13
2017-11-30T05:59:55.055Z,100139.87
2017-11-30T06:01:57.533Z,100136.50
2017-11-30T06:03:59.988Z,100136.50
2017-11-30T06:06:02.464Z,100140.37
2017-11-30T06:08:04.732Z,100133.52
2017-11-30T06:10:07.426Z,100139.92
2017-11-30T06:12:10.420Z,100135.60
2017-11-30T06:14:12.849Z,100130.03
2017-11-30T06:16:14.929Z,100130.89
2017-11-30T06:18:17.733Z,100134.32
2017-11-30T06:20:20.107Z,100135.58
2017-11-30T06:22:22.968Z,100122.78
2017-11-30T06:24:25.761Z,100134.80
2017-11-30T06:26:28.033Z,100125.42
2017-11-30T06:28:30.710Z,100122.00
2017-11-30T06:30:32.947Z,100132.26
2017-11-30T06:32:35.427Z,100125.42
2017-11-30T06:34:37.708Z,100118.16
2017-11-30T06:36:39.954Z,100130.09
2017-11-30T06:38:42.555Z,100120.30
2017-11-30T06:40:44.975Z,100126.70
2017-11-30T06:42:47.748Z,100124.66
2017-11-30T06:44:50.408Z,100125.14
2017-11-30T06:46:53.383Z,100128.56
2017-11-30T06:48:55.947Z,100125.59
2017-11-30T06:52:44.899Z,100122.10
2017-11-30T06:54:47.267Z,100116.61
2017-11-30T06:56:49.453Z,100119.54
2017-11-30T06:58:52.295Z,100119.54
2017-11-30T07:00:54.827Z,100119.54
2017-11-30T07:02:57.488Z,100125.14
2017-11-30T07:04:59.937Z,100121.73
2017-11-30T07:07:03.607Z,100122.19
2017-11-30T07:09:06.551Z,100120.12
2017-11-30T07:11:09.134Z,100121.38
2017-11-30T07:13:11.580Z,100120.54
2017-11-30T07:15:13.947Z,100119.28
2017-11-30T07:17:16.656Z,100119.67
2017-11-30T07:19:19.107Z,100120.12
2017-11-30T07:21:21.565Z,100122.36
2017-11-30T07:23:50.946Z,100133.44
2017-11-30T07:25:54.541Z,100128.23
2017-11-30T07:27:56.971Z,100125.61
2017-11-30T07:29:59.807Z,100130.35
2017-11-30T07:32:02.303Z,100134.58
2017-11-30T07:34:04.872Z,100135.48
2017-11-30T07:36:07.639Z,100138.05
2017-11-30T07:38:10.056Z,100136.81
2017-11-30T07:47:56.005Z,100130.81
2017-11-30T07:50:00.695Z,100128.67
2017-11-30T07:52:03.616Z,100131.73
2017-11-30T07:54:05.961Z,100143.22
2017-11-30T08:04:24.349Z,100148.42
2017-11-30T08:06:26.875Z,100143.35
2017-11-30T08:08:29.615Z,100143.30
2017-11-30T08:10:31.876Z,100139.00
2017-11-30T08:12:34.763Z,100146.25
2017-11-30T08:14:37.976Z,100140.73
2017-11-30T08:16:40.991Z,100138.09
2017-11-30T08:18:43.656Z,100140.66
2017-11-30T08:20:45.876Z,100137.28
2017-11-30T08:22:48.872Z,100140.27
2017-11-30T08:24:51.643Z,100137.65
2017-11-30T08:26:54.004Z,100133.80
2017-11-30T08:28:56.718Z,100130.38
2017-11-30T08:30:58.967Z,100134.14
2017-11-30T08:33:01.744Z,100139.77
2017-11-30T08:35:05.748Z,100124.91
2017-11-30T08:37:08.274Z,100132.94
2017-11-30T08:39:10.900Z,100125.25
2017-11-30T08:41:13.574Z,100126.45
2017-11-30T08:43:16.152Z,100122.60
2017-11-30T08:45:19.030Z,100121.38
2017-11-30T08:47:21.587Z,100118.81
2017-11-30T08:49:23.975Z,100129.09
2017-11-30T08:51:27.579Z,100118.91
2017-11-30T08:53:30.489Z,100118.99
2017-11-30T08:55:32.936Z,100120.30
2017-11-30T08:57:35.605Z,100118.08
2017-11-30T09:00:37.876Z,100122.69
2017-11-30T09:02:40.478Z,100121.08
2017-11-30T09:04:42.968Z,100121.14
2017-11-30T09:06:45.945Z,100122.60
2017-11-30T09:08:48.253Z,100115.35
2017-11-30T09:10:51.580Z,100129.98
2017-11-30T09:12:54.373Z,100126.03
2017-11-30T09:20:56.564Z,100123.44
2017-11-30T09:22:59.006Z,100128.59
2017-11-30T09:25:02.007Z,100117.97
2017-11-30T09:27:06.766Z,100120.04
2017-11-30T09:29:09.541Z,100118.84
2017-11-30T09:31:12.899Z,100120.48
2017-11-30T09:33:16.559Z,100119.59
2017-11-30T09:35:19.286Z,100118.73
2017-11-30T09:37:22.432Z,100114.89
2017-11-30T09:45:57.611Z,100108.92
2017-11-30T09:48:00.055Z,100114.99
2017-11-30T09:50:02.986Z,100115.35
2017-11-30T10:02:51.706Z,100111.98
2017-11-30T10:04:54.253Z,100100.92
2017-11-30T10:06:56.700Z,100103.72
2017-11-30T10:08:59.399Z,100097.05
2017-11-30T10:11:02.372Z,100094.61
2017-11-30T10:13:05.061Z,100093.05
2017-11-30T10:15:09.050Z,100082.81
2017-11-30T10:17:11.739Z,100080.78
2017-11-30T10:19:14.834Z,100078.86
2017-11-30T10:21:17.634Z,100080.93
2017-11-30T10:23:20.702Z,100074.00
2017-11-30T10:33:45.845Z,100079.62
2017-11-30T10:35:48.760Z,100085.45
2017-11-30T10:37:50.908Z,100072.20
2017-11-30T10:39:53.695Z,100086.83
2017-11-30T10:41:56.031Z,100078.27
2017-11-30T10:43:59.025Z,100072.80
2017-11-30T10:46:01.604Z,100073.94
2017-11-30T10:48:03.947Z,100073.34
2017-11-30T10:50:06.564Z,100064.27
2017-11-30T10:52:08.752Z,100068.14
2017-11-30T10:54:11.380Z,100062.62
2017-11-30T10:56:13.847Z,100064.43
2017-11-30T10:58:20.441Z,100061.87
2017-11-30T11:00:23.439Z,100051.92
2017-11-30T11:02:26.724Z,100050.45
2017-11-30T11:04:29.574Z,100047.78
2017-11-30T11:06:32.708Z,100043.94
2017-11-30T11:08:35.047Z,100044.94
2017-11-30T11:10:38.955Z,100040.95
2017-11-30T11:12:42.132Z,100041.64
2017-11-30T11:14:45.652Z,100041.20
2017-11-30T11:16:49.044Z,100039.33
2017-11-30T11:18:51.813Z,100036.23
2017-11-30T11:20:54.266Z,100040.74
2017-11-30T11:22:56.965Z,100040.72
2017-11-30T11:24:59.636Z,100039.63
2017-11-30T11:38:09.970Z,100030.57
2017-11-30T11:40:12.804Z,100030.91
2017-11-30T11:42:16.665Z,100027.75
2017-11-30T11:44:20.179Z,100029.84
2017-11-30T11:46:23.465Z,100028.91
2017-11-30T11:48:26.949Z,100027.27
2017-11-30T11:50:30.445Z,100022.49
2017-11-30T11:52:33.307Z,100022.47
2017-11-30T11:54:36.526Z,100027.45
2017-11-30T11:56:39.420Z,100024.08
2017-11-30T11:58:42.957Z,100018.53
2017-11-30T12:00:46.421Z,100015.91
2017-11-30T12:02:48.970Z,100018.80
2017-11-30T12:04:51.775Z,100017.99
2017-11-30T12:06:54.935Z,100027.76
2017-11-30T12:10:01.462Z,100026.03
2017-11-30T12:20:27.960Z,100013.44
2017-11-30T12:22:31.750Z,100011.20
2017-11-30T12:24:35.062Z,100011.31
2017-11-30T12:26:38.409Z,100015.16
2017-11-30T12:28:42.616Z,100012.56
2017-11-30T12:30:46.139Z,100013.46
2017-11-30T12:32:49.659Z,100016.86
2017-11-30T12:34:53.606Z,100015.61
2017-11-30T12:36:58.897Z,100013.05
2017-11-30T12:39:04.893Z,100012.36
2017-11-30T12:41:08.449Z,100016.66
2017-11-30T12:43:12.513Z,100011.52
2017-11-30T12:45:15.428Z,100008.09
2017-11-30T12:47:18.091Z,100017.48
2017-11-30T12:49:21.931Z,100006.47
2017-11-30T12:51:25.427Z,100016.63
2017-11-30T12:53:40.209Z,100010.98
2017-11-30T12:55:47.332Z,100007.19
2017-11-30T12:57:49.729Z,100006.77
2017-11-30T12:59:53.667Z,100005.01
2017-11-30T13:01:56.947Z,100014.89
2017-11-30T13:03:59.824Z,100007.97
2017-11-30T13:06:02.909Z,100005.52
2017-11-30T13:08:05.781Z,100008.62
2017-11-30T13:10:09.096Z,100015.37
2017-11-30T13:12:12.079Z,100010.31
2017-11-30T13:14:15.251Z,100003.90
2017-11-30T13:16:18.436Z,100005.52
2017-11-30T13:18:21.837Z,100005.96
2017-11-30T13:20:24.922Z,100006.29
2017-11-30T13:22:29.784Z,100011.91
2017-11-30T13:24:33.196Z,100020.56
2017-11-30T13:26:36.680Z,100012.53
2017-11-30T13:28:40.615Z,100016.83
2017-11-30T13:30:43.146Z,100010.86
2017-11-30T13:32:46.839Z,100011.72
2017-11-30T13:34:50.149Z,100017.75
2017-11-30T13:36:53.120Z,100019.42
2017-11-30T13:38:56.078Z,100020.26
2017-11-30T13:40:59.398Z,100021.60
2017-11-30T13:43:01.976Z,100019.93
2017-11-30T13:45:05.161Z,100017.36
2017-11-30T13:47:08.179Z,100017.80
2017-11-30T13:49:11.430Z,100018.28
2017-11-30T13:51:14.023Z,100017.86
2017-11-30T13:53:16.896Z,100020.37
2017-11-30T13:55:19.980Z,100012.73
2017-11-30T13:57:22.879Z,100016.58
2017-11-30T13:59:25.833Z,100017.42
2017-11-30T14:03:37.748Z,100010.25
2017-11-30T14:05:40.944Z,100016.28
2017-11-30T14:07:46.440Z,100008.16
2017-11-30T14:09:49.721Z,100009.44
2017-11-30T14:11:53.004Z,100012.94
2017-11-30T14:13:56.104Z,100015.50
2017-11-30T14:15:59.734Z,100019.77
2017-11-30T14:18:02.941Z,100012.09
2017-11-30T14:20:05.841Z,100017.23
2017-11-30T14:22:09.033Z,100021.50
2017-11-30T14:24:13.121Z,100018.60
2017-11-30T14:26:17.051Z,100022.03
2017-11-30T14:28:19.930Z,100022.00
2017-11-30T14:30:22.783Z,100021.17
2017-11-30T14:32:26.366Z,100030.66
2017-11-30T14:34:29.008Z,100027.70
2017-11-30T14:36:31.892Z,100017.05
2017-11-30T14:38:34.868Z,100021.25
2017-11-30T14:40:37.761Z,100016.20
2017-11-30T14:42:40.736Z,100014.51
2017-11-30T14:44:44.045Z,100018.36
2017-11-30T14:46:46.903Z,100016.30
2017-11-30T14:48:49.736Z,100018.02
2017-11-30T14:50:52.974Z,100019.28
2017-11-30T14:52:56.249Z,100019.28
2017-11-30T14:55:00.069Z,100022.71
2017-11-30T14:57:05.384Z,100020.23
2017-11-30T14:59:09.195Z,100018.95
2017-11-30T15:02:07.094Z,100031.30
2017-11-30T15:04:10.392Z,100021.96
2017-11-30T15:06:14.894Z,100026.23
2017-11-30T15:08:17.995Z,100024.55
2017-11-30T15:10:21.096Z,100031.84
2017-11-30T15:12:23.872Z,100030.19
2017-11-30T15:14:27.013Z,100026.70
2017-11-30T15:16:29.784Z,100034.88
2017-11-30T15:20:44.937Z,100038.31
2017-11-30T15:22:48.064Z,100037.92
2017-11-30T15:24:50.977Z,100032.06
2017-11-30T15:26:53.575Z,100039.70
2017-11-30T15:28:56.051Z,100032.88
2017-11-30T15:30:59.033Z,100033.73
2017-11-30T15:33:02.021Z,100035.97
2017-11-30T15:35:05.555Z,100035.53
2017-11-30T15:37:08.397Z,100030.84
2017-11-30T15:39:11.009Z,100028.66
2017-11-30T15:41:13.570Z,100035.08
2017-11-30T15:43:16.017Z,100034.69
2017-11-30T15:45:18.912Z,100038.59
2017-11-30T15:47:21.890Z,100033.49
2017-11-30T15:49:24.599Z,100038.16
2017-11-30T15:51:27.862Z,100038.95
2017-11-30T15:53:31.057Z,100036.87
2017-11-30T15:55:33.948Z,100036.89
2017-11-30T15:57:37.064Z,100034.35
2017-11-30T15:59:40.014Z,100037.84
2017-11-30T16:01:43.013Z,100037.48
2017-11-30T16:03:45.973Z,100034.02
2017-11-30T16:05:49.082Z,100034.92
2017-11-30T16:07:51.941Z,100037.09
2017-11-30T16:09:54.952Z,100034.61
2017-11-30T16:11:57.815Z,100037.59
2017-11-30T16:14:00.897Z,100039.30
2017-11-30T16:16:03.492Z,100043.15
2017-11-30T16:18:06.488Z,100039.30
2017-11-30T16:20:09.822Z,100040.16
2017-11-30T16:24:23.003Z,100046.66
2017-11-30T16:26:25.428Z,100041.95
2017-11-30T16:28:27.544Z,100043.23
2017-11-30T16:30:30.002Z,100044.63
2017-11-30T16:32:32.732Z,100048.50
2017-11-30T16:34:36.278Z,100051.13
2017-11-30T16:36:38.869Z,100057.96
2017-11-30T16:38:41.442Z,100055.00
2017-11-30T16:40:43.939Z,100047.75
2017-11-30T16:42:46.912Z,100052.52
2017-11-30T16:47:11.412Z,100058.94
2017-11-30T16:49:13.689Z,100056.40
2017-11-30T16:51:16.060Z,100058.16
2017-11-30T16:53:37.260Z,100053.05
2017-11-30T16:55:40.048Z,100048.42
2017-11-30T16:57:43.180Z,100049.65
2017-11-30T16:59:45.908Z,100056.54
2017-11-30T17:01:48.897Z,100055.28
2017-11-30T17:03:52.513Z,100057.41
2017-11-30T17:05:55.276Z,100061.75
2017-11-30T17:07:58.588Z,100060.50
2017-11-30T17:10:01.064Z,100066.08
2017-11-30T17:12:03.916Z,100060.92
2017-11-30T17:14:06.410Z,100058.86
2017-11-30T17:16:09.310Z,100060.16
2017-11-30T17:18:11.988Z,100057.18
2017-11-30T17:20:14.842Z,100058.88
2017-11-30T17:22:17.010Z,100054.61
2017-11-30T17:24:20.132Z,100059.38
2017-11-30T17:26:23.013Z,100063.23
2017-11-30T17:28:25.974Z,100063.26
2017-11-30T17:30:28.762Z,100064.18
2017-11-30T17:32:31.097Z,100060.36
2017-11-30T17:34:34.006Z,100064.69
2017-11-30T17:36:36.867Z,100056.98
2017-11-30T17:38:40.002Z,100061.28
2017-11-30T17:40:42.976Z,100061.72
2017-11-30T17:42:45.850Z,100073.71
2017-11-30T17:44:49.044Z,100074.61
2017-11-30T17:46:51.940Z,100070.78
2017-11-30T17:48:54.794Z,100083.59
2017-11-30T17:50:57.489Z,100081.49
2017-11-30T17:53:00.397Z,100081.91
2017-11-30T17:55:03.564Z,100080.69
2017-11-30T17:57:06.850Z,100086.28
2017-11-30T17:59:09.427Z,100085.00
2017-11-30T18:01:11.977Z,100088.83
2017-11-30T18:03:14.592Z,100084.59
2017-11-30T18:05:16.839Z,100096.61
2017-11-30T18:07:19.823Z,100090.64
2017-11-30T18:09:23.026Z,100097.47
2017-11-30T18:11:25.733Z,100091.50
2017-11-30T18:13:27.973Z,100094.13
2017-11-30T18:15:30.973Z,100094.15
2017-11-30T18:17:33.832Z,100091.25
2017-11-30T18:19:36.815Z,100096.80
2017-11-30T18:21:39.816Z,100090.33
2017-11-30T18:23:42.590Z,100097.66
2017-11-30T18:25:45.630Z,100093.84
2017-11-30T18:27:48.064Z,100103.30
2017-11-30T18:29:51.530Z,100095.59
2017-11-30T18:31:54.990Z,100101.59
2017-11-30T18:33:57.727Z,100098.19
2017-11-30T18:36:01.015Z,100104.66
2017-11-30T18:38:03.989Z,100111.52
2017-11-30T18:40:06.887Z,100119.66
2017-11-30T18:42:10.496Z,100114.52
2017-11-30T18:44:13.246Z,100122.66
2017-11-30T18:52:17.732Z,100118.47
2017-11-30T18:54:20.069Z,100123.66
2017-11-30T18:56:23.517Z,100128.79
2017-11-30T18:58:26.058Z,100123.74
2017-11-30T19:00:28.960Z,100133.53
2017-11-30T19:02:31.291Z,100120.31
2017-11-30T19:04:33.723Z,100128.03
2017-11-30T19:06:36.488Z,100128.48
2017-11-30T19:08:39.058Z,100135.81
2017-11-30T19:10:41.846Z,100133.66
2017-11-30T19:12:44.815Z,100135.81
2017-11-30T19:14:47.511Z,100135.83
2017-11-30T19:16:49.681Z,100134.13
2017-11-30T19:18:51.302Z,100145.73
2017-11-30T19:20:53.284Z,100141.91
2017-11-30T19:22:55.291Z,100138.90
2017-11-30T19:24:57.273Z,100136.78
2017-11-30T19:26:59.401Z,100143.24
2017-11-30T19:29:01.351Z,100140.20
2017-11-30T19:31:03.299Z,100150.52
2017-11-30T19:33:05.284Z,100139.00
2017-11-30T19:35:07.308Z,100147.17
2017-11-30T19:37:09.270Z,100148.45
2017-11-30T19:39:11.287Z,100148.48
2017-11-30T19:41:13.280Z,100148.03
2017-11-30T19:43:15.336Z,100152.33
2017-11-30T19:45:17.284Z,100148.48
2017-11-30T19:47:19.249Z,100153.63
2017-11-30T19:49:21.279Z,100147.61
2017-11-30T19:51:23.236Z,100154.03
2017-11-30T19:53:25.282Z,100160.52
2017-11-30T19:55:27.276Z,100162.24
2017-11-30T19:57:29.292Z,100160.59
2017-11-30T19:59:31.296Z,100163.11
2017-11-30T20:01:33.421Z,100168.29
2017-11-30T20:03:35.258Z,100166.11
2017-11-30T20:05:37.284Z,100163.16
2017-11-30T20:07:39.264Z,100166.17
2017-11-30T20:09:41.289Z,100168.81
2017-11-30T20:11:43.294Z,100162.34
2017-11-30T20:13:45.428Z,100172.16
2017-11-30T20:15:47.303Z,100176.03
2017-11-30T20:17:49.278Z,100175.22
2017-11-30T20:19:51.296Z,100176.92
2017-11-30T20:21:53.456Z,100179.52
2017-11-30T20:23:57.286Z,100176.11
2017-11-30T20:25:59.284Z,100179.95
2017-11-30T20:28:01.200Z,100182.10
2017-11-30T20:30:03.286Z,100184.28
2017-11-30T20:32:05.284Z,100180.43
2017-11-30T20:34:07.287Z,100182.94
2017-11-30T20:36:09.276Z,100189.80
2017-11-30T20:38:11.298Z,100190.29
2017-11-30T20:40:13.313Z,100193.70
2017-11-30T20:42:15.242Z,100189.01
2017-11-30T20:44:17.233Z,100191.57
2017-11-30T20:46:19.240Z,100191.62
2017-11-30T20:48:21.423Z,100190.73
2017-11-30T20:50:23.275Z,100195.94
2017-11-30T20:52:25.276Z,100198.84
2017-11-30T20:54:27.289Z,100205.68
2017-11-30T20:56:29.277Z,100201.47
2017-11-30T20:58:31.286Z,100199.37
2017-11-30T21:00:33.258Z,100199.79
2017-11-30T21:02:35.239Z,100201.94
2017-11-30T21:04:37.274Z,100203.63
2017-11-30T21:06:39.255Z,100208.40
2017-11-30T21:08:41.292Z,100207.12
2017-11-30T21:10:43.272Z,100208.00
2017-11-30T21:12:45.282Z,100207.14
2017-11-30T21:14:47.233Z,100214.83
2017-11-30T21:16:49.306Z,100214.39
2017-11-30T21:18:51.358Z,100215.67
2017-11-30T21:20:53.418Z,100217.89
2017-11-30T21:22:55.261Z,100213.63
2017-11-30T21:24:57.266Z,100217.89
2017-11-30T21:26:59.260Z,100220.91
2017-11-30T21:29:01.266Z,100225.61
2017-11-30T21:31:03.255Z,100223.02
2017-11-30T21:33:05.284Z,100233.30
2017-11-30T21:35:07.291Z,100230.79
2017-11-30T21:37:09.253Z,100233.80
2017-11-30T21:39:11.232Z,100228.25
2017-11-30T21:41:13.241Z,100225.34
2017-11-30T21:43:15.249Z,100237.73
2017-11-30T21:45:17.255Z,100233.02
2017-11-30T21:47:19.213Z,100241.93
2017-11-30T21:49:21.236Z,100249.67
2017-11-30T21:51:23.244Z,100248.00
2017-11-30T21:53:25.234Z,100247.14
2017-11-30T21:55:27.226Z,100249.36
2017-11-30T21:57:29.209Z,100252.34
2017-11-30T21:59:31.331Z,100253.63
2017-11-30T22:01:33.221Z,100244.28
2017-11-30T22:03:35.236Z,100248.99
2017-11-30T22:05:37.391Z,100249.85
2017-11-30T22:07:39.220Z,100252.86
2017-11-30T22:09:41.235Z,100259.24
2017-11-30T22:11:43.113Z,100253.72
2017-11-30T22:13:45.089Z,100259.74
2017-11-30T22:15:47.208Z,100255.05
2017-11-30T22:17:49.248Z,100258.48
2017-11-30T22:19:51.239Z,100264.47
2017-11-30T22:21:53.242Z,100269.23
2017-11-30T22:23:55.306Z,100261.96
2017-11-30T22:25:57.329Z,100269.67
2017-11-30T22:28:00.004Z,100263.70
2017-11-30T22:30:01.858Z,100270.12
2017-11-30T22:32:03.647Z,100270.12
2017-11-30T22:34:05.289Z,100279.09
2017-11-30T22:36:07.244Z,100274.87
2017-11-30T22:38:09.257Z,100277.88
2017-11-30T22:40:11.243Z,100276.18
2017-11-30T22:42:13.238Z,100272.81
2017-11-30T22:44:15.239Z,100274.09
2017-11-30T22:46:17.251Z,100278.80
2017-11-30T22:48:19.244Z,100280.52
2017-11-30T22:50:21.261Z,100284.34
2017-11-30T22:52:23.226Z,100280.94
2017-11-30T22:54:25.228Z,100281.80
2017-11-30T22:56:55.703Z,100292.84
2017-11-30T22:58:57.857Z,100283.88
2017-11-30T23:01:01.871Z,100286.86
2017-11-30T23:03:03.833Z,100297.53
2017-11-30T23:05:05.779Z,100294.59
2017-11-30T23:07:07.755Z,100294.59
2017-11-30T23:09:09.895Z,100293.77
2017-11-30T23:11:12.413Z,100294.63
2017-11-30T23:13:14.886Z,100291.62
2017-11-30T23:15:17.088Z,100298.47
2017-11-30T23:17:19.715Z,100294.25
2017-11-30T23:19:21.883Z,100301.03
2017-11-30T23:21:24.047Z,100301.87
2017-11-30T23:23:26.446Z,100302.31
2017-11-30T23:25:28.789Z,100303.59
2017-11-30T23:27:30.958Z,100304.03
2017-11-30T23:29:32.994Z,100305.72
2017-11-30T23:31:35.516Z,100306.58
2017-11-30T23:33:37.870Z,100308.28
2017-11-30T23:35:39.824Z,100305.31
2017-11-30T23:37:41.955Z,100309.16
2017-11-30T23:39:44.388Z,100310.42
2017-11-30T23:41:46.284Z,100315.13
2017-11-30T23:43:48.616Z,100315.63
2017-11-30T23:45:50.863Z,100319.48
2017-11-30T23:47:52.902Z,100315.63
2017-11-30T23:49:54.998Z,100312.22
2017-11-30T23:51:57.014Z,100319.00
2017-11-30T23:53:59.442Z,100325.41
2017-11-30T23:56:03.008Z,100321.22
2017-11-30T23:58:05.404Z,100325.45
